sensor_id;sensor_type;location;lat;lon;timestamp;pressure;altitude;pressure_sealevel;temperature;humidity
11856;BME280;5987;53.140;8.904;2022-07-10T00:01:06;102338.41;;;12.57;75.10
11856;BME280;5987;53.140;8.904;2022-07-10T00:04:10;102343.75;;;12.53;75.08
11856;BME280;5987;53.140;8.904;2022-07-10T00:07:13;102338.47;;;12.53;74.52
11856;BME280;5987;53.140;8.904;2022-07-10T00:10:18;102337.59;;;12.55;74.33
11856;BME280;5987;53.140;8.904;2022-07-10T00:13:22;102335.72;;;12.58;73.77
11856;BME280;5987;53.140;8.904;2022-07-10T00:16:27;102335.78;;;12.57;73.58
11856;BME280;5987;53.140;8.904;2022-07-10T00:19:31;102332.31;;;12.55;73.18
11856;BME280;5987;53.140;8.904;2022-07-10T00:22:35;102332.31;;;12.55;73.36
11856;BME280;5987;53.140;8.904;2022-07-10T00:25:38;102329.56;;;12.59;73.41
11856;BME280;5987;53.140;8.904;2022-07-10T00:28:42;102334.72;;;12.64;73.62
11856;BME280;5987;53.140;8.904;2022-07-10T00:31:47;102332.94;;;12.66;74.00
11856;BME280;5987;53.140;8.904;2022-07-10T00:34:51;102334.81;;;12.61;74.70
11856;BME280;5987;53.140;8.904;2022-07-10T00:37:55;102326.81;;;12.64;74.91
11856;BME280;5987;53.140;8.904;2022-07-10T00:40:59;102324.25;;;12.61;75.38
11856;BME280;5987;53.140;8.904;2022-07-10T00:44:04;102325.22;;;12.57;75.61
11856;BME280;5987;53.140;8.904;2022-07-10T00:47:11;102322.59;;;12.57;75.95
11856;BME280;5987;53.140;8.904;2022-07-10T00:50:16;102322.75;;;12.50;76.15
11856;BME280;5987;53.140;8.904;2022-07-10T00:53:20;102320.09;;;12.50;76.41
11856;BME280;5987;53.140;8.904;2022-07-10T00:56:25;102314.13;;;12.42;76.49
11856;BME280;5987;53.140;8.904;2022-07-10T00:59:29;102307.19;;;12.38;76.46
11856;BME280;5987;53.140;8.904;2022-07-10T01:02:35;102310.63;;;12.40;76.40
11856;BME280;5987;53.140;8.904;2022-07-10T01:05:39;102304.53;;;12.38;76.38
11856;BME280;5987;53.140;8.904;2022-07-10T01:08:45;102299.16;;;12.43;76.30
11856;BME280;5987;53.140;8.904;2022-07-10T01:11:49;102293.13;;;12.39;76.57
11856;BME280;5987;53.140;8.904;2022-07-10T01:14:53;102296.69;;;12.37;76.64
11856;BME280;5987;53.140;8.904;2022-07-10T01:17:59;102287.97;;;12.33;76.47
11856;BME280;5987;53.140;8.904;2022-07-10T01:21:05;102289.78;;;12.31;76.34
11856;BME280;5987;53.140;8.904;2022-07-10T01:24:10;102291.56;;;12.29;76.47
11856;BME280;5987;53.140;8.904;2022-07-10T01:27:14;102292.44;;;12.29;76.70
11856;BME280;5987;53.140;8.904;2022-07-10T01:30:18;102295.94;;;12.30;76.47
11856;BME280;5987;53.140;8.904;2022-07-10T01:33:23;102302.91;;;12.32;76.23
11856;BME280;5987;53.140;8.904;2022-07-10T01:36:29;102296.81;;;12.29;76.32
11856;BME280;5987;53.140;8.904;2022-07-10T01:39:33;102294.94;;;12.35;76.57
11856;BME280;5987;53.140;8.904;2022-07-10T01:42:36;102291.44;;;12.35;75.97
11856;BME280;5987;53.140;8.904;2022-07-10T01:45:40;102282.75;;;12.30;76.36
11856;BME280;5987;53.140;8.904;2022-07-10T01:48:46;102279.19;;;12.32;76.13
11856;BME280;5987;53.140;8.904;2022-07-10T01:51:51;102278.31;;;12.32;76.21
11856;BME280;5987;53.140;8.904;2022-07-10T01:54:55;102280.09;;;12.31;76.23
11856;BME280;5987;53.140;8.904;2022-07-10T01:57:58;102280.13;;;12.30;76.72
11856;BME280;5987;53.140;8.904;2022-07-10T02:01:03;102278.38;;;12.29;76.46
11856;BME280;5987;53.140;8.904;2022-07-10T02:04:07;102284.56;;;12.28;76.77
11856;BME280;5987;53.140;8.904;2022-07-10T02:07:29;102286.38;;;12.24;76.80
11856;BME280;5987;53.140;8.904;2022-07-10T02:10:33;102282.94;;;12.22;77.04
11856;BME280;5987;53.140;8.904;2022-07-10T02:13:37;102275.97;;;12.20;76.86
11856;BME280;5987;53.140;8.904;2022-07-10T02:16:41;102278.63;;;12.18;77.18
11856;BME280;5987;53.140;8.904;2022-07-10T02:19:46;102277.84;;;12.13;77.17
11856;BME280;5987;53.140;8.904;2022-07-10T02:22:51;102266.47;;;12.11;77.06
11856;BME280;5987;53.140;8.904;2022-07-10T02:25:54;102270.06;;;12.07;77.33
11856;BME280;5987;53.140;8.904;2022-07-10T02:28:58;102267.28;;;12.14;77.43
11856;BME280;5987;53.140;8.904;2022-07-10T02:32:02;102274.47;;;12.06;77.47
11856;BME280;5987;53.140;8.904;2022-07-10T02:35:07;102263.81;;;12.11;77.43
11856;BME280;5987;53.140;8.904;2022-07-10T02:38:13;102255.06;;;12.10;77.33
11856;BME280;5987;53.140;8.904;2022-07-10T02:41:16;102256.75;;;12.14;77.32
11856;BME280;5987;53.140;8.904;2022-07-10T02:44:20;102255.22;;;12.04;77.31
11856;BME280;5987;53.140;8.904;2022-07-10T02:47:23;102243.75;;;12.05;77.29
11856;BME280;5987;53.140;8.904;2022-07-10T02:50:27;102246.50;;;12.00;77.47
11856;BME280;5987;53.140;8.904;2022-07-10T02:53:32;102243.06;;;11.97;77.50
11856;BME280;5987;53.140;8.904;2022-07-10T02:56:36;102245.69;;;11.95;77.77
11856;BME280;5987;53.140;8.904;2022-07-10T02:59:40;102247.47;;;11.93;77.86
11856;BME280;5987;53.140;8.904;2022-07-10T03:02:44;102253.63;;;11.94;77.97
11856;BME280;5987;53.140;8.904;2022-07-10T03:05:48;102258.88;;;11.95;78.00
11856;BME280;5987;53.140;8.904;2022-07-10T03:08:53;102258.94;;;11.91;77.82
11856;BME280;5987;53.140;8.904;2022-07-10T03:11:56;102257.16;;;11.94;78.02
11856;BME280;5987;53.140;8.904;2022-07-10T03:15:00;102253.66;;;11.91;77.81
11856;BME280;5987;53.140;8.904;2022-07-10T03:18:04;102255.47;;;11.89;77.90
11856;BME280;5987;53.140;8.904;2022-07-10T03:21:08;102265.19;;;11.85;77.77
11856;BME280;5987;53.140;8.904;2022-07-10T03:24:13;102266.00;;;11.89;77.93
11856;BME280;5987;53.140;8.904;2022-07-10T03:27:17;102266.06;;;11.86;77.98
11856;BME280;5987;53.140;8.904;2022-07-10T03:30:21;102260.75;;;11.89;77.90
11856;BME280;5987;53.140;8.904;2022-07-10T03:33:24;102264.19;;;11.91;77.96
11856;BME280;5987;53.140;8.904;2022-07-10T03:36:28;102259.75;;;11.96;78.04
11856;BME280;5987;53.140;8.904;2022-07-10T03:39:33;102262.44;;;11.90;78.14
11856;BME280;5987;53.140;8.904;2022-07-10T03:42:37;102256.47;;;11.83;78.45
11856;BME280;5987;53.140;8.904;2022-07-10T03:45:41;102257.38;;;11.80;78.47
11856;BME280;5987;53.140;8.904;2022-07-10T03:48:44;102259.34;;;11.69;78.81
11856;BME280;5987;53.140;8.904;2022-07-10T03:51:48;102269.09;;;11.62;79.05
11856;BME280;5987;53.140;8.904;2022-07-10T03:54:55;102261.19;;;11.64;79.30
11856;BME280;5987;53.140;8.904;2022-07-10T03:57:59;102263.09;;;11.56;79.13
11856;BME280;5987;53.140;8.904;2022-07-10T04:01:04;102253.56;;;11.48;79.47
11856;BME280;5987;53.140;8.904;2022-07-10T04:04:08;102263.25;;;11.46;79.85
11856;BME280;5987;53.140;8.904;2022-07-10T04:07:12;102259.84;;;11.41;79.79
11856;BME280;5987;53.140;8.904;2022-07-10T04:10:18;102265.09;;;11.41;80.10
11856;BME280;5987;53.140;8.904;2022-07-10T04:13:21;102263.44;;;11.36;80.08
11856;BME280;5987;53.140;8.904;2022-07-10T04:16:25;102252.91;;;11.37;80.48
11856;BME280;5987;53.140;8.904;2022-07-10T04:19:29;102251.03;;;11.44;80.56
11856;BME280;5987;53.140;8.904;2022-07-10T04:22:33;102257.03;;;11.52;80.64
11856;BME280;5987;53.140;8.904;2022-07-10T04:25:38;102256.81;;;11.63;80.53
11856;BME280;5987;53.140;8.904;2022-07-10T04:28:42;102255.13;;;11.60;80.46
11856;BME280;5987;53.140;8.904;2022-07-10T04:31:45;102257.59;;;11.68;80.50
11856;BME280;5987;53.140;8.904;2022-07-10T04:34:50;102260.09;;;11.74;80.47
11856;BME280;5987;53.140;8.904;2022-07-10T04:37:53;102252.13;;;11.80;80.52
11856;BME280;5987;53.140;8.904;2022-07-10T04:40:58;102253.75;;;11.86;80.36
11856;BME280;5987;53.140;8.904;2022-07-10T04:44:02;102251.88;;;11.94;80.35
11856;BME280;5987;53.140;8.904;2022-07-10T04:47:06;102249.03;;;12.07;80.31
11856;BME280;5987;53.140;8.904;2022-07-10T04:50:10;102240.81;;;12.22;80.34
11856;BME280;5987;53.140;8.904;2022-07-10T04:53:14;102241.25;;;12.41;80.05
11856;BME280;5987;53.140;8.904;2022-07-10T04:56:19;102251.88;;;13.13;79.30
11856;BME280;5987;53.140;8.904;2022-07-10T04:59:22;102251.97;;;13.10;76.47
11856;BME280;5987;53.140;8.904;2022-07-10T05:02:26;102244.31;;;12.99;76.75
11856;BME280;5987;53.140;8.904;2022-07-10T05:05:30;102239.91;;;13.00;76.27
11856;BME280;5987;53.140;8.904;2022-07-10T05:08:34;102253.53;;;12.81;77.01
11856;BME280;5987;53.140;8.904;2022-07-10T05:11:39;102254.59;;;12.73;77.04
11856;BME280;5987;53.140;8.904;2022-07-10T05:14:43;102257.34;;;12.68;77.34
11856;BME280;5987;53.140;8.904;2022-07-10T05:17:46;102267.31;;;12.55;77.70
11856;BME280;5987;53.140;8.904;2022-07-10T05:20:50;102255.59;;;12.67;77.76
11856;BME280;5987;53.140;8.904;2022-07-10T05:23:54;102262.63;;;12.68;77.54
11856;BME280;5987;53.140;8.904;2022-07-10T05:26:59;102254.59;;;12.73;77.54
11856;BME280;5987;53.140;8.904;2022-07-10T05:30:03;102259.78;;;12.77;77.35
11856;BME280;5987;53.140;8.904;2022-07-10T05:33:07;102262.34;;;12.80;77.05
11856;BME280;5987;53.140;8.904;2022-07-10T05:36:11;102261.50;;;12.80;77.20
11856;BME280;5987;53.140;8.904;2022-07-10T05:39:15;102254.47;;;12.79;76.59
11856;BME280;5987;53.140;8.904;2022-07-10T05:42:20;102256.91;;;12.86;76.60
11856;BME280;5987;53.140;8.904;2022-07-10T05:45:23;102270.88;;;12.92;76.60
11856;BME280;5987;53.140;8.904;2022-07-10T05:48:27;102269.00;;;12.97;76.34
11856;BME280;5987;53.140;8.904;2022-07-10T05:51:31;102260.56;;;13.18;76.13
11856;BME280;5987;53.140;8.904;2022-07-10T05:54:46;102255.19;;;13.21;75.37
11856;BME280;5987;53.140;8.904;2022-07-10T05:57:51;102265.63;;;13.26;75.03
11856;BME280;5987;53.140;8.904;2022-07-10T06:00:57;102258.91;;;13.50;74.80
11856;BME280;5987;53.140;8.904;2022-07-10T06:04:00;102264.25;;;14.12;73.24
11856;BME280;5987;53.140;8.904;2022-07-10T06:07:04;102258.06;;;14.13;71.71
11856;BME280;5987;53.140;8.904;2022-07-10T06:10:09;102252.19;;;14.03;71.62
11856;BME280;5987;53.140;8.904;2022-07-10T06:13:14;102263.97;;;14.22;71.55
11856;BME280;5987;53.140;8.904;2022-07-10T06:16:18;102260.19;;;14.59;71.60
11856;BME280;5987;53.140;8.904;2022-07-10T06:19:22;102246.66;;;14.99;70.09
11856;BME280;5987;53.140;8.904;2022-07-10T06:22:25;102250.53;;;15.42;67.87
11856;BME280;5987;53.140;8.904;2022-07-10T06:25:35;102243.50;;;15.14;67.55
11856;BME280;5987;53.140;8.904;2022-07-10T06:28:40;102248.25;;;15.56;67.06
11856;BME280;5987;53.140;8.904;2022-07-10T06:31:44;102249.63;;;15.43;65.29
11856;BME280;5987;53.140;8.904;2022-07-10T06:34:48;102255.00;;;15.40;65.75
11856;BME280;5987;53.140;8.904;2022-07-10T06:37:52;102249.97;;;16.08;64.95
11856;BME280;5987;53.140;8.904;2022-07-10T06:40:55;102248.09;;;16.79;63.52
11856;BME280;5987;53.140;8.904;2022-07-10T06:44:01;102246.72;;;16.69;61.23
11856;BME280;5987;53.140;8.904;2022-07-10T06:47:06;102253.59;;;16.97;60.65
11856;BME280;5987;53.140;8.904;2022-07-10T06:50:42;102243.81;;;16.53;59.86
11856;BME280;5987;53.140;8.904;2022-07-10T06:53:46;102249.75;;;16.60;59.12
11856;BME280;5987;53.140;8.904;2022-07-10T06:56:50;102252.97;;;16.68;60.68
11856;BME280;5987;53.140;8.904;2022-07-10T06:59:55;102258.25;;;16.46;59.95
11856;BME280;5987;53.140;8.904;2022-07-10T07:02:59;102253.97;;;16.66;60.07
11856;BME280;5987;53.140;8.904;2022-07-10T07:06:03;102261.34;;;16.57;60.78
11856;BME280;5987;53.140;8.904;2022-07-10T07:09:07;102250.63;;;16.60;60.26
11856;BME280;5987;53.140;8.904;2022-07-10T07:12:11;102249.38;;;16.00;61.62
11856;BME280;5987;53.140;8.904;2022-07-10T07:15:36;102246.28;;;16.36;62.04
11856;BME280;5987;53.140;8.904;2022-07-10T07:18:44;102244.88;;;16.49;61.18
11856;BME280;5987;53.140;8.904;2022-07-10T07:21:54;102238.56;;;17.18;60.10
11856;BME280;5987;53.140;8.904;2022-07-10T07:25:15;102233.84;;;16.82;59.96
11856;BME280;5987;53.140;8.904;2022-07-10T07:28:19;102243.75;;;17.01;59.04
11856;BME280;5987;53.140;8.904;2022-07-10T07:31:24;102239.78;;;16.67;59.55
11856;BME280;5987;53.140;8.904;2022-07-10T07:34:28;102263.41;;;15.76;61.16
11856;BME280;5987;53.140;8.904;2022-07-10T07:37:38;102250.66;;;15.89;62.60
11856;BME280;5987;53.140;8.904;2022-07-10T07:40:42;102242.59;;;16.40;60.60
11856;BME280;5987;53.140;8.904;2022-07-10T07:43:46;102237.38;;;16.37;59.07
11856;BME280;5987;53.140;8.904;2022-07-10T07:46:51;102231.28;;;16.35;58.47
11856;BME280;5987;53.140;8.904;2022-07-10T07:49:55;102237.91;;;16.69;57.92
11856;BME280;5987;53.140;8.904;2022-07-10T07:53:00;102238.91;;;16.20;58.41
11856;BME280;5987;53.140;8.904;2022-07-10T07:56:05;102244.78;;;15.81;59.72
11856;BME280;5987;53.140;8.904;2022-07-10T07:59:09;102249.16;;;15.55;60.73
11856;BME280;5987;53.140;8.904;2022-07-10T08:02:16;102256.38;;;15.52;62.44
11856;BME280;5987;53.140;8.904;2022-07-10T08:05:21;102255.16;;;16.35;61.79
11856;BME280;5987;53.140;8.904;2022-07-10T08:08:25;102242.97;;;17.19;57.96
11856;BME280;5987;53.140;8.904;2022-07-10T08:11:29;102262.66;;;16.23;57.67
11856;BME280;5987;53.140;8.904;2022-07-10T08:14:33;102258.50;;;16.40;58.65
11856;BME280;5987;53.140;8.904;2022-07-10T08:17:39;102259.75;;;16.29;59.02
11856;BME280;5987;53.140;8.904;2022-07-10T08:20:43;102246.56;;;16.96;57.90
11856;BME280;5987;53.140;8.904;2022-07-10T08:23:47;102250.00;;;16.76;56.92
11856;BME280;5987;53.140;8.904;2022-07-10T08:26:50;102244.09;;;16.23;58.34
11856;BME280;5987;53.140;8.904;2022-07-10T08:29:54;102239.66;;;16.00;58.59
11856;BME280;5987;53.140;8.904;2022-07-10T08:32:59;102241.72;;;15.92;59.07
11856;BME280;5987;53.140;8.904;2022-07-10T08:36:04;102241.94;;;15.86;58.33
11856;BME280;5987;53.140;8.904;2022-07-10T08:39:28;102247.47;;;16.27;58.11
11856;BME280;5987;53.140;8.904;2022-07-10T08:42:32;102233.84;;;17.04;55.70
11856;BME280;5987;53.140;8.904;2022-07-10T08:45:36;102238.19;;;17.48;53.49
11856;BME280;5987;53.140;8.904;2022-07-10T08:48:48;102244.16;;;17.53;53.80
11856;BME280;5987;53.140;8.904;2022-07-10T08:51:57;102251.53;;;16.59;55.40
11856;BME280;5987;53.140;8.904;2022-07-10T08:55:02;102264.84;;;16.36;56.76
11856;BME280;5987;53.140;8.904;2022-07-10T08:58:08;102255.47;;;16.02;57.78
11856;BME280;5987;53.140;8.904;2022-07-10T09:01:11;102266.03;;;15.78;57.62
11856;BME280;5987;53.140;8.904;2022-07-10T09:04:21;102263.78;;;15.92;57.85
11856;BME280;5987;53.140;8.904;2022-07-10T09:07:35;102236.91;;;17.15;56.54
11856;BME280;5987;53.140;8.904;2022-07-10T09:10:39;102239.00;;;17.90;53.29
11856;BME280;5987;53.140;8.904;2022-07-10T09:13:50;102231.94;;;18.47;51.28
11856;BME280;5987;53.140;8.904;2022-07-10T09:16:54;102235.06;;;18.19;47.73
11856;BME280;5987;53.140;8.904;2022-07-10T09:19:59;102242.59;;;17.28;49.18
11856;BME280;5987;53.140;8.904;2022-07-10T09:23:16;102246.34;;;17.23;50.01
11856;BME280;5987;53.140;8.904;2022-07-10T09:26:21;102251.75;;;16.77;52.38
11856;BME280;5987;53.140;8.904;2022-07-10T09:29:25;102261.59;;;16.51;53.35
11856;BME280;5987;53.140;8.904;2022-07-10T09:32:28;102252.69;;;16.30;55.46
11856;BME280;5987;53.140;8.904;2022-07-10T09:35:33;102265.50;;;16.17;56.10
11856;BME280;5987;53.140;8.904;2022-07-10T09:38:55;102252.44;;;15.89;56.45
11856;BME280;5987;53.140;8.904;2022-07-10T09:42:00;102258.38;;;15.95;56.97
11856;BME280;5987;53.140;8.904;2022-07-10T09:45:20;102250.66;;;16.13;56.55
11856;BME280;5987;53.140;8.904;2022-07-10T09:48:24;102256.59;;;16.20;55.32
11856;BME280;5987;53.140;8.904;2022-07-10T09:51:33;102268.97;;;15.95;55.88
11856;BME280;5987;53.140;8.904;2022-07-10T09:54:37;102258.59;;;15.89;56.01
11856;BME280;5987;53.140;8.904;2022-07-10T09:57:46;102257.28;;;16.25;56.46
11856;BME280;5987;53.140;8.904;2022-07-10T10:00:55;102258.38;;;16.43;55.97
11856;BME280;5987;53.140;8.904;2022-07-10T10:04:00;102253.34;;;16.81;55.56
11856;BME280;5987;53.140;8.904;2022-07-10T10:07:11;102255.09;;;16.36;55.75
11856;BME280;5987;53.140;8.904;2022-07-10T10:10:18;102253.84;;;15.99;57.16
11856;BME280;5987;53.140;8.904;2022-07-10T10:13:23;102256.84;;;15.63;58.54
11856;BME280;5987;53.140;8.904;2022-07-10T10:16:30;102261.50;;;15.56;59.02
11856;BME280;5987;53.140;8.904;2022-07-10T10:19:41;102253.97;;;15.94;59.62
11856;BME280;5987;53.140;8.904;2022-07-10T10:23:04;102259.47;;;16.37;58.56
11856;BME280;5987;53.140;8.904;2022-07-10T10:26:09;102253.94;;;16.43;57.85
11856;BME280;5987;53.140;8.904;2022-07-10T10:29:15;102247.31;;;16.55;56.12
11856;BME280;5987;53.140;8.904;2022-07-10T10:32:19;102256.19;;;16.98;55.38
11856;BME280;5987;53.140;8.904;2022-07-10T10:35:44;102252.13;;;17.32;55.00
11856;BME280;5987;53.140;8.904;2022-07-10T10:39:09;102251.78;;;16.53;56.55
11856;BME280;5987;53.140;8.904;2022-07-10T10:42:33;102260.16;;;16.88;55.77
11856;BME280;5987;53.140;8.904;2022-07-10T10:45:37;102245.75;;;16.72;56.43
11856;BME280;5987;53.140;8.904;2022-07-10T10:49:04;102242.88;;;16.78;57.32
11856;BME280;5987;53.140;8.904;2022-07-10T10:52:10;102247.78;;;16.43;57.33
11856;BME280;5987;53.140;8.904;2022-07-10T10:55:19;102248.38;;;16.50;57.86
11856;BME280;5987;53.140;8.904;2022-07-10T10:58:25;102243.72;;;16.33;58.04
11856;BME280;5987;53.140;8.904;2022-07-10T11:01:29;102243.19;;;16.24;58.19
11856;BME280;5987;53.140;8.904;2022-07-10T11:04:35;102249.28;;;16.72;58.17
11856;BME280;5987;53.140;8.904;2022-07-10T11:07:54;102239.41;;;16.98;56.77
11856;BME280;5987;53.140;8.904;2022-07-10T11:10:59;102220.72;;;17.63;55.32
11856;BME280;5987;53.140;8.904;2022-07-10T11:14:04;102224.63;;;17.95;53.47
11856;BME280;5987;53.140;8.904;2022-07-10T11:17:08;102222.25;;;17.48;52.24
11856;BME280;5987;53.140;8.904;2022-07-10T11:20:12;102233.34;;;16.94;53.87
11856;BME280;5987;53.140;8.904;2022-07-10T11:23:48;102235.94;;;16.74;55.80
11856;BME280;5987;53.140;8.904;2022-07-10T11:27:14;102234.25;;;16.95;56.41
11856;BME280;5987;53.140;8.904;2022-07-10T11:30:18;102228.56;;;17.25;56.00
11856;BME280;5987;53.140;8.904;2022-07-10T11:33:22;102226.75;;;17.25;55.49
11856;BME280;5987;53.140;8.904;2022-07-10T11:36:27;102218.41;;;17.35;56.34
11856;BME280;5987;53.140;8.904;2022-07-10T11:39:33;102226.63;;;17.70;55.43
11856;BME280;5987;53.140;8.904;2022-07-10T11:42:55;102217.78;;;17.69;55.11
11856;BME280;5987;53.140;8.904;2022-07-10T11:46:00;102226.53;;;17.31;56.75
11856;BME280;5987;53.140;8.904;2022-07-10T11:49:05;102221.34;;;17.28;56.46
11856;BME280;5987;53.140;8.904;2022-07-10T11:52:11;102230.47;;;17.01;57.95
11856;BME280;5987;53.140;8.904;2022-07-10T11:55:15;102238.16;;;16.62;58.34
11856;BME280;5987;53.140;8.904;2022-07-10T11:58:21;102244.69;;;16.54;60.09
11856;BME280;5987;53.140;8.904;2022-07-10T12:01:26;102242.59;;;16.40;60.19
11856;BME280;5987;53.140;8.904;2022-07-10T12:04:31;102249.03;;;16.33;60.58
11856;BME280;5987;53.140;8.904;2022-07-10T12:07:35;102255.50;;;16.25;61.06
11856;BME280;5987;53.140;8.904;2022-07-10T12:10:39;102251.84;;;16.52;61.41
11856;BME280;5987;53.140;8.904;2022-07-10T12:13:48;102249.38;;;16.47;61.62
11856;BME280;5987;53.140;8.904;2022-07-10T12:16:54;102246.69;;;16.93;60.90
11856;BME280;5987;53.140;8.904;2022-07-10T12:19:58;102253.22;;;16.84;58.47
11856;BME280;5987;53.140;8.904;2022-07-10T12:23:03;102251.59;;;17.24;58.64
11856;BME280;5987;53.140;8.904;2022-07-10T12:26:09;102262.88;;;17.29;56.00
11856;BME280;5987;53.140;8.904;2022-07-10T12:29:22;102255.72;;;17.31;55.51
11856;BME280;5987;53.140;8.904;2022-07-10T12:32:26;102254.00;;;17.51;54.85
11856;BME280;5987;53.140;8.904;2022-07-10T12:35:30;102253.66;;;17.18;55.17
11856;BME280;5987;53.140;8.904;2022-07-10T12:38:34;102263.66;;;17.11;55.48
11856;BME280;5987;53.140;8.904;2022-07-10T12:41:59;102265.00;;;16.77;56.97
11856;BME280;5987;53.140;8.904;2022-07-10T12:45:12;102269.66;;;16.48;58.40
11856;BME280;5987;53.140;8.904;2022-07-10T12:48:22;102280.84;;;16.33;60.50
11856;BME280;5987;53.140;8.904;2022-07-10T12:51:28;102278.19;;;16.33;61.82
11856;BME280;5987;53.140;8.904;2022-07-10T12:55:10;102279.59;;;16.43;62.59
11856;BME280;5987;53.140;8.904;2022-07-10T12:58:16;102273.47;;;16.41;63.07
11856;BME280;5987;53.140;8.904;2022-07-10T13:01:22;102272.88;;;16.56;62.34
11856;BME280;5987;53.140;8.904;2022-07-10T13:04:27;102276.53;;;16.76;62.89
11856;BME280;5987;53.140;8.904;2022-07-10T13:07:31;102271.19;;;16.54;63.13
11856;BME280;5987;53.140;8.904;2022-07-10T13:10:35;102266.44;;;17.08;62.65
11856;BME280;5987;53.140;8.904;2022-07-10T13:13:39;102264.63;;;17.08;62.29
11856;BME280;5987;53.140;8.904;2022-07-10T13:16:45;102252.59;;;17.22;61.71
11856;BME280;5987;53.140;8.904;2022-07-10T13:19:50;102250.41;;;17.52;60.96
11856;BME280;5987;53.140;8.904;2022-07-10T13:22:54;102264.88;;;17.45;58.63
11856;BME280;5987;53.140;8.904;2022-07-10T13:25:57;102257.56;;;17.09;60.38
11856;BME280;5987;53.140;8.904;2022-07-10T13:29:03;102251.31;;;17.10;60.80
11856;BME280;5987;53.140;8.904;2022-07-10T13:32:09;102254.50;;;16.97;60.72
11856;BME280;5987;53.140;8.904;2022-07-10T13:35:12;102261.00;;;16.89;61.17
11856;BME280;5987;53.140;8.904;2022-07-10T13:38:16;102255.69;;;16.67;61.02
11856;BME280;5987;53.140;8.904;2022-07-10T13:41:21;102253.47;;;16.56;60.44
11856;BME280;5987;53.140;8.904;2022-07-10T13:44:24;102259.25;;;16.89;60.00
11856;BME280;5987;53.140;8.904;2022-07-10T13:47:29;102253.97;;;17.10;58.83
11856;BME280;5987;53.140;8.904;2022-07-10T13:50:33;102246.50;;;17.40;58.27
11856;BME280;5987;53.140;8.904;2022-07-10T13:53:37;102253.06;;;17.52;57.84
11856;BME280;5987;53.140;8.904;2022-07-10T13:56:41;102250.72;;;17.24;58.23
11856;BME280;5987;53.140;8.904;2022-07-10T13:59:45;102242.91;;;17.21;57.95
11856;BME280;5987;53.140;8.904;2022-07-10T14:02:50;102250.16;;;16.95;57.68
11856;BME280;5987;53.140;8.904;2022-07-10T14:05:54;102252.94;;;17.35;56.74
11856;BME280;5987;53.140;8.904;2022-07-10T14:08:58;102246.88;;;17.31;56.32
11856;BME280;5987;53.140;8.904;2022-07-10T14:12:02;102252.91;;;17.14;55.96
11856;BME280;5987;53.140;8.904;2022-07-10T14:15:15;102256.63;;;16.88;56.99
11856;BME280;5987;53.140;8.904;2022-07-10T14:18:20;102254.19;;;16.81;57.50
11856;BME280;5987;53.140;8.904;2022-07-10T14:21:40;102258.84;;;16.76;58.76
11856;BME280;5987;53.140;8.904;2022-07-10T14:24:44;102251.97;;;16.71;58.82
11856;BME280;5987;53.140;8.904;2022-07-10T14:27:48;102255.91;;;16.60;58.27
11856;BME280;5987;53.140;8.904;2022-07-10T14:30:52;102258.28;;;16.68;58.52
11856;BME280;5987;53.140;8.904;2022-07-10T14:33:57;102257.66;;;16.61;57.73
11856;BME280;5987;53.140;8.904;2022-07-10T14:37:01;102254.19;;;16.81;57.24
11856;BME280;5987;53.140;8.904;2022-07-10T14:40:07;102261.44;;;16.78;57.09
11856;BME280;5987;53.140;8.904;2022-07-10T14:43:10;102271.47;;;16.93;57.18
11856;BME280;5987;53.140;8.904;2022-07-10T14:46:14;102255.72;;;16.65;57.07
11856;BME280;5987;53.140;8.904;2022-07-10T14:49:19;102263.22;;;16.55;57.95
11856;BME280;5987;53.140;8.904;2022-07-10T14:52:23;102263.09;;;16.58;58.81
11856;BME280;5987;53.140;8.904;2022-07-10T14:55:29;102264.00;;;16.57;60.10
11856;BME280;5987;53.140;8.904;2022-07-10T14:58:34;102272.06;;;16.54;61.19
11856;BME280;5987;53.140;8.904;2022-07-10T15:01:57;102265.16;;;16.50;61.24
11856;BME280;5987;53.140;8.904;2022-07-10T15:05:03;102261.00;;;16.67;61.23
11856;BME280;5987;53.140;8.904;2022-07-10T15:08:07;102255.69;;;16.67;60.51
11856;BME280;5987;53.140;8.904;2022-07-10T15:11:11;102259.31;;;16.86;60.25
11856;BME280;5987;53.140;8.904;2022-07-10T15:14:15;102257.09;;;16.75;60.46
11856;BME280;5987;53.140;8.904;2022-07-10T15:17:19;102251.88;;;16.74;60.78
11856;BME280;5987;53.140;8.904;2022-07-10T15:20:24;102259.28;;;16.88;61.24
11856;BME280;5987;53.140;8.904;2022-07-10T15:23:28;102251.53;;;16.81;60.99
11856;BME280;5987;53.140;8.904;2022-07-10T15:26:32;102251.53;;;16.81;61.46
11856;BME280;5987;53.140;8.904;2022-07-10T15:29:35;102246.69;;;16.93;61.69
11856;BME280;5987;53.140;8.904;2022-07-10T15:32:39;102242.53;;;16.86;61.46
11856;BME280;5987;53.140;8.904;2022-07-10T15:35:45;102246.03;;;16.86;61.86
11856;BME280;5987;53.140;8.904;2022-07-10T15:38:49;102238.75;;;16.69;61.42
11856;BME280;5987;53.140;8.904;2022-07-10T15:41:52;102243.53;;;16.61;61.83
11856;BME280;5987;53.140;8.904;2022-07-10T15:44:56;102245.31;;;16.60;61.44
11856;BME280;5987;53.140;8.904;2022-07-10T15:48:00;102250.13;;;16.73;61.86
11856;BME280;5987;53.140;8.904;2022-07-10T15:51:05;102246.69;;;16.93;62.06
11856;BME280;5987;53.140;8.904;2022-07-10T15:54:09;102246.47;;;16.99;61.89
11856;BME280;5987;53.140;8.904;2022-07-10T15:57:13;102248.09;;;17.02;61.83
11856;BME280;5987;53.140;8.904;2022-07-10T16:00:17;102241.25;;;16.74;61.86
11856;BME280;5987;53.140;8.904;2022-07-10T16:03:20;102241.34;;;16.71;62.02
11856;BME280;5987;53.140;8.904;2022-07-10T16:06:25;102235.69;;;16.58;61.93
11856;BME280;5987;53.140;8.904;2022-07-10T16:09:30;102232.75;;;16.66;62.28
11856;BME280;5987;53.140;8.904;2022-07-10T16:12:34;102235.88;;;16.53;62.04
11856;BME280;5987;53.140;8.904;2022-07-10T16:15:38;102234.19;;;16.51;62.50
11856;BME280;5987;53.140;8.904;2022-07-10T16:18:42;102236.69;;;16.55;62.95
11856;BME280;5987;53.140;8.904;2022-07-10T16:21:48;102234.03;;;16.55;62.66
11856;BME280;5987;53.140;8.904;2022-07-10T16:24:51;102224.47;;;16.51;63.64